Delray Beach, FL (33445)

9:02 PM EST on December 07, 2016 (GMT -0500)
Bexley Park | | Change Station

Elev 15 ft 26.48 °N, 80.12 °W | Updated 14 minutes ago

Scattered Clouds
Scattered Clouds
75.1 °F
Feels Like 75 °F
N
0.0
Wind Variable Wind from SE
Gusts 0.0 mph

Today
High -- | Low -- °F
--% Chance of Precip.
Yesterday
High -- | Low -- °F
Precip. -- in
Pressure 30.09 in
Visibility 5.0 miles
Clouds Scattered Clouds 3300 ft
Heat Index 75 °F
Dew Point 70 °F
Humidity 85%
Rainfall in
Snow Depth Not available.
6:56 AM 5:28 PM
First Quarter, 58% visible
METAR KPMP 080153Z 35003KT 5SM BR SCT033 24/22 A3008 RMK AO2 SLP187 T02390222
Pressure 30.09 in
Visibility 5.0 miles
Clouds Scattered Clouds 3300 ft
Heat Index 75 °F
Dew Point 70 °F
Humidity 85%
Rainfall in
Snow Depth Not available.
6:56 AM 5:28 PM
First Quarter, 58% visible
METAR KPMP 080153Z 35003KT 5SM BR SCT033 24/22 A3008 RMK AO2 SLP187 T02390222

10-Day Weather Forecast

Almanac

Astronomy

Dec. 07, 2016 Rise Set
Actual Time
Civil Twilight
Nautical Twilight
Astronomical Twilight
Moon
Length of Visible Light
Length of Day
Tomorrow will be .
, % of the Moon is Illuminated

Today's Extremes

State Highs State Lows

Community

WunderPhotos

Upload Photos

1,956,259 photos uploaded!

WunderBlog® & News

Nearby

Air Quality

  Air Quality AQ Index Pollutant
Not available.

Snow Depth

Station Depth Elevation

Earthquake Activity

City Distance Mag. Time & Date
Minimum magnitude displayed is 2.5.

Coastal Water Temperatures

Place Temperature

Stations

Nearby Weather Stations

Station Location Temp. Windchill Dew Point Humidity Wind Precip. Elev Updated Type
                   

Watches & Warnings

There are currently no watches in effect.